Time;durP1;ratioP1;P1;durP2;ratioP2;P2;SDS_P1;SDS_P2;PMS_P1;PMS_P2;Temp;Humidity;BMP_temperature;BMP_pressure;BME280_temperature;BME280_humidity;BME280_pressure;Samples;Min_cycle;Max_cycle;Signal;HPM_P1;HPM_P2
2023/01/24 00:01:17;;;;;;;22.88;16.65;;;3.30;90.40;;;;;;5013565;28;20087;-45
2023/01/24 00:03:42;;;;;;;23.58;16.67;;;3.30;90.50;;;;;;5013264;28;20487;-46
2023/01/24 00:06:09;;;;;;;19.40;14.98;;;3.30;90.50;;;;;;5003735;28;20056;-47
2023/01/24 00:08:35;;;;;;;20.38;14.77;;;3.30;90.40;;;;;;5032145;28;20033;-49
2023/01/24 00:11:05;;;;;;;20.73;16.25;;;3.40;90.50;;;;;;5027835;28;20034;-45
2023/01/24 00:13:33;;;;;;;22.35;16.35;;;3.40;90.50;;;;;;5012656;28;20057;-45
2023/01/24 00:16:11;;;;;;;21.23;15.63;;;3.40;90.50;;;;;;4990703;28;20040;-47
2023/01/24 00:18:38;;;;;;;20.50;15.27;;;3.40;90.60;;;;;;5013278;28;20034;-47
2023/01/24 00:21:12;;;;;;;19.55;15.32;;;3.40;90.60;;;;;;5028413;28;20359;-45
2023/01/24 00:23:43;;;;;;;22.50;16.95;;;3.40;90.60;;;;;;5026646;28;20121;-46
2023/01/24 00:26:13;;;;;;;21.95;16.35;;;3.40;90.60;;;;;;5029637;28;20036;-46
2023/01/24 00:28:39;;;;;;;23.27;15.73;;;3.40;90.60;;;;;;4995939;28;20030;-49
2023/01/24 00:31:05;;;;;;;24.83;16.20;;;3.40;90.60;;;;;;5012144;28;20456;-46
2023/01/24 00:33:35;;;;;;;24.02;17.20;;;3.40;90.70;;;;;;4995777;28;20038;-47
2023/01/24 00:36:04;;;;;;;23.13;17.15;;;3.40;90.70;;;;;;5019134;28;20796;-47
2023/01/24 00:38:33;;;;;;;23.63;17.10;;;3.40;90.70;;;;;;5015306;28;20045;-46
2023/01/24 00:41:05;;;;;;;24.65;17.05;;;3.40;90.70;;;;;;5033078;28;20121;-46
2023/01/24 00:43:32;;;;;;;21.45;15.30;;;3.40;90.80;;;;;;5028041;28;20036;-45
2023/01/24 00:45:58;;;;;;;24.30;17.10;;;3.40;90.80;;;;;;5013221;28;20026;-45
2023/01/24 00:48:25;;;;;;;19.15;14.98;;;3.40;90.80;;;;;;5012990;28;20030;-45
2023/01/24 00:50:55;;;;;;;22.67;16.05;;;3.40;90.80;;;;;;5013934;28;20889;-45
2023/01/24 00:53:21;;;;;;;24.40;16.52;;;3.40;90.80;;;;;;5035168;28;20065;-45
2023/01/24 00:55:48;;;;;;;23.33;15.90;;;3.40;90.80;;;;;;5031306;28;20070;-46
2023/01/24 00:58:18;;;;;;;23.85;16.63;;;3.40;90.80;;;;;;5016908;28;20034;-46
2023/01/24 01:00:44;;;;;;;20.45;15.93;;;3.40;90.90;;;;;;5016016;28;20034;-46
2023/01/24 01:03:18;;;;;;;23.48;16.42;;;3.40;90.90;;;;;;5015687;28;20034;-49
2023/01/24 01:05:45;;;;;;;19.58;15.77;;;3.40;90.90;;;;;;5033817;28;20081;-45
2023/01/24 01:08:14;;;;;;;22.67;17.83;;;3.40;90.90;;;;;;5018371;28;20049;-46
2023/01/24 01:10:40;;;;;;;22.63;16.80;;;3.40;90.80;;;;;;5015788;28;20026;-47
2023/01/24 01:13:12;;;;;;;21.25;15.85;;;3.40;90.90;;;;;;5015055;28;20092;-44
2023/01/24 01:15:38;;;;;;;20.67;15.57;;;3.40;90.90;;;;;;5015117;28;20447;-46
2023/01/24 01:18:05;;;;;;;21.55;15.35;;;3.40;90.90;;;;;;5016272;28;20072;-45
2023/01/24 01:20:38;;;;;;;23.83;17.08;;;3.40;90.90;;;;;;5016367;28;20110;-45
2023/01/24 01:23:05;;;;;;;24.08;17.70;;;3.40;90.90;;;;;;5035344;28;20108;-44
2023/01/24 01:25:32;;;;;;;20.75;15.93;;;3.40;90.80;;;;;;5033737;28;20025;-45
2023/01/24 01:27:58;;;;;;;19.70;14.63;;;3.40;90.90;;;;;;5022269;28;20370;-47
2023/01/24 01:30:28;;;;;;;20.30;15.20;;;3.40;90.80;;;;;;5035818;28;20033;-46
2023/01/24 01:32:55;;;;;;;25.80;15.75;;;3.40;90.90;;;;;;5020348;28;20034;-45
2023/01/24 01:35:23;;;;;;;21.42;15.43;;;3.40;90.90;;;;;;5015831;28;20125;-44
2023/01/24 01:37:51;;;;;;;22.10;16.63;;;3.40;90.90;;;;;;5030203;28;20371;-46
2023/01/24 01:40:18;;;;;;;20.80;15.57;;;3.40;90.90;;;;;;5019153;28;20034;-47
2023/01/24 01:43:03;;;;;;;18.08;14.07;;;3.40;90.80;;;;;;5014977;28;20337;-47
2023/01/24 01:45:45;;;;;;;21.05;15.50;;;3.40;91.00;;;;;;5015986;28;20053;-47
2023/01/24 01:48:30;;;;;;;21.52;16.02;;;3.40;90.90;;;;;;5014766;28;20092;-47
2023/01/24 01:51:12;;;;;;;23.85;17.35;;;3.40;90.90;;;;;;5015984;28;20107;-45
2023/01/24 01:53:46;;;;;;;21.30;16.60;;;3.40;90.90;;;;;;5034744;28;20468;-46
2023/01/24 01:56:28;;;;;;;22.90;15.50;;;3.40;91.00;;;;;;5029951;28;20045;-49
2023/01/24 01:59:04;;;;;;;20.50;14.98;;;3.40;91.00;;;;;;5028054;28;20041;-45
2023/01/24 02:01:35;;;;;;;22.98;14.88;;;3.40;90.90;;;;;;5033445;28;20167;-46
2023/01/24 02:04:13;;;;;;;20.38;14.63;;;3.40;91.00;;;;;;5014696;28;20041;-45
2023/01/24 02:07:20;;;;;;;21.20;16.20;;;3.40;90.90;;;;;;5016454;28;20073;-46
2023/01/24 02:09:49;;;;;;;21.70;15.57;;;3.40;91.00;;;;;;5015368;28;20026;-45
2023/01/24 02:12:42;;;;;;;20.52;15.80;;;3.40;91.00;;;;;;5014694;28;20033;-46
2023/01/24 02:18:03;;;;;;;18.80;14.68;;;3.40;91.00;;;;;;5025064;28;20041;-46
2023/01/24 02:20:46;;;;;;;18.23;14.73;;;3.40;90.90;;;;;;5032933;28;20490;-45
2023/01/24 02:23:49;;;;;;;19.92;14.55;;;3.40;91.00;;;;;;5032101;28;20041;-45
2023/01/24 02:26:22;;;;;;;17.48;13.00;;;3.50;90.90;;;;;;5034842;28;20478;-47
2023/01/24 02:29:11;;;;;;;16.90;13.73;;;3.40;90.90;;;;;;5033890;28;20120;-46
2023/01/24 02:32:01;;;;;;;20.02;14.60;;;3.40;90.80;;;;;;5027256;28;20040;-46
2023/01/24 02:34:28;;;;;;;19.60;14.57;;;3.50;90.80;;;;;;5033830;28;20033;-47
2023/01/24 02:36:58;;;;;;;20.77;15.07;;;3.50;90.80;;;;;;5016803;28;20029;-46
2023/01/24 02:39:28;;;;;;;;;;;3.40;90.80;;;;;;5030709;28;20044;-47
2023/01/24 02:42:08;;;;;;;20.08;13.13;;;3.40;90.70;;;;;;5034808;28;19905;-46
2023/01/24 02:44:42;;;;;;;22.05;14.82;;;3.40;90.70;;;;;;5024086;28;20448;-46
2023/01/24 02:47:08;;;;;;;18.45;12.95;;;3.40;90.60;;;;;;4998220;28;20049;-45
2023/01/24 02:49:37;;;;;;;21.08;16.40;;;3.40;90.70;;;;;;5014718;28;20554;-46
2023/01/24 02:54:52;;;;;;;18.48;14.15;;;3.40;90.60;;;;;;5029942;28;20032;-46
2023/01/24 03:00:06;;;;;;;17.42;12.65;;;3.40;90.70;;;;;;5027677;28;20044;-46
2023/01/24 03:02:32;;;;;;;18.15;13.32;;;3.40;90.60;;;;;;5014631;28;20029;-46
2023/01/24 03:05:02;;;;;;;17.42;13.13;;;3.40;90.60;;;;;;5013985;28;20077;-46
2023/01/24 03:07:41;;;;;;;;;;;3.40;90.60;;;;;;5018671;28;20025;-48
2023/01/24 03:10:09;;;;;;;17.55;12.93;;;3.40;90.70;;;;;;5027022;28;20007;-47
2023/01/24 03:34:51;;;;;;;16.50;12.23;;;3.40;90.40;;;;;;5014282;28;20426;-45
2023/01/24 03:40:11;;;;;;;20.25;13.75;;;3.40;90.30;;;;;;5029478;28;20041;-46
2023/01/24 03:42:46;;;;;;;15.95;11.90;;;3.40;90.20;;;;;;5014050;28;20061;-45
2023/01/24 03:45:16;;;;;;;16.45;11.85;;;3.30;90.10;;;;;;5012818;28;20042;-45
2023/01/24 03:48:04;;;;;;;18.00;12.70;;;3.40;90.10;;;;;;5013493;28;20022;-45
2023/01/24 03:53:23;;;;;;;14.60;11.07;;;3.40;90.00;;;;;;5030178;28;20036;-46
2023/01/24 03:55:57;;;;;;;;;;;3.40;89.90;;;;;;5016218;28;20600;-45
2023/01/24 03:58:26;;;;;;;12.57;9.75;;;3.40;89.70;;;;;;5016085;28;20701;-46
2023/01/24 04:01:02;;;;;;;13.50;10.88;;;3.30;89.50;;;;;;5027626;28;20045;-45
2023/01/24 04:03:30;;;;;;;13.07;10.63;;;3.40;89.60;;;;;;5013018;28;20037;-45
2023/01/24 04:05:56;;;;;;;15.77;12.03;;;3.30;89.20;;;;;;5012096;28;20058;-45
2023/01/24 04:08:22;;;;;;;13.25;10.13;;;3.40;89.40;;;;;;5030796;28;20132;-46
2023/01/24 04:10:49;;;;;;;12.82;9.57;;;3.40;89.30;;;;;;5026014;28;20440;-46
2023/01/24 04:13:18;;;;;;;15.02;10.82;;;3.30;89.00;;;;;;5012453;28;20084;-46
2023/01/24 04:15:45;;;;;;;12.65;9.93;;;3.30;89.10;;;;;;5012291;28;20080;-46
2023/01/24 04:18:13;;;;;;;12.88;9.18;;;3.30;89.10;;;;;;5013245;28;20029;-45
2023/01/24 04:20:41;;;;;;;12.20;9.43;;;3.30;89.00;;;;;;5012352;28;20034;-46
2023/01/24 04:23:11;;;;;;;12.95;9.90;;;3.30;88.70;;;;;;5031261;28;20117;-46
2023/01/24 04:25:40;;;;;;;11.55;9.50;;;3.30;88.60;;;;;;5033014;28;20458;-45
2023/01/24 04:28:07;;;;;;;12.18;10.20;;;3.30;88.50;;;;;;5034414;28;20033;-46
2023/01/24 04:30:34;;;;;;;12.57;9.82;;;3.30;88.60;;;;;;5036242;28;20041;-44
2023/01/24 04:33:00;;;;;;;11.77;9.60;;;3.30;88.40;;;;;;5017723;28;20440;-46
2023/01/24 04:35:29;;;;;;;13.50;10.52;;;3.30;88.50;;;;;;5027635;28;20045;-45
2023/01/24 04:38:03;;;;;;;12.23;9.52;;;3.30;88.30;;;;;;5035598;28;20478;-46
2023/01/24 04:40:30;;;;;;;11.70;9.23;;;3.30;88.20;;;;;;5015677;28;20049;-47
2023/01/24 04:42:57;;;;;;;14.10;10.02;;;3.30;88.10;;;;;;5016192;28;20029;-46
2023/01/24 04:45:25;;;;;;;12.38;8.93;;;3.30;87.80;;;;;;5015988;28;20790;-46
2023/01/24 04:47:53;;;;;;;11.40;8.65;;;3.30;87.50;;;;;;5015854;28;20044;-47
2023/01/24 04:50:22;;;;;;;11.65;8.68;;;3.30;87.40;;;;;;5019181;28;20584;-46
2023/01/24 04:52:48;;;;;;;11.55;9.63;;;3.30;87.00;;;;;;5036909;28;20034;-46
2023/01/24 04:55:15;;;;;;;10.75;8.43;;;3.30;86.70;;;;;;5035107;28;20091;-46
2023/01/24 04:57:42;;;;;;;11.85;8.50;;;3.30;86.40;;;;;;5036568;28;20029;-45
2023/01/24 05:00:12;;;;;;;10.80;9.27;;;3.30;86.00;;;;;;5036407;28;20075;-46
2023/01/24 05:02:41;;;;;;;13.30;10.68;;;3.30;85.80;;;;;;5022044;28;20411;-46
2023/01/24 05:05:08;;;;;;;10.77;8.70;;;3.30;85.40;;;;;;5025186;28;20040;-46
2023/01/24 05:07:35;;;;;;;11.80;9.32;;;3.40;85.30;;;;;;5022970;28;20128;-46
2023/01/24 05:10:02;;;;;;;12.88;10.35;;;3.30;85.40;;;;;;5016568;28;20030;-47
2023/01/24 05:12:29;;;;;;;13.02;9.77;;;3.40;85.50;;;;;;5015569;28;20049;-46
2023/01/24 05:14:55;;;;;;;11.82;9.98;;;3.40;85.60;;;;;;5016547;28;20026;-46
2023/01/24 05:17:22;;;;;;;11.85;8.98;;;3.40;85.60;;;;;;5026261;28;20041;-47
2023/01/24 05:19:50;;;;;;;11.32;9.10;;;3.40;85.70;;;;;;5033995;28;20029;-46
2023/01/24 05:22:17;;;;;;;11.10;9.07;;;3.40;85.90;;;;;;5036209;28;20039;-49
2023/01/24 05:24:44;;;;;;;13.27;9.23;;;3.40;86.00;;;;;;5019316;28;20037;-48
2023/01/24 05:27:12;;;;;;;14.35;10.35;;;3.40;86.10;;;;;;5016327;28;20026;-45
2023/01/24 05:29:38;;;;;;;10.40;8.30;;;3.40;86.30;;;;;;5016172;28;20029;-46
2023/01/24 05:32:05;;;;;;;11.80;9.40;;;3.40;86.00;;;;;;5015981;28;20032;-45
2023/01/24 05:34:32;;;;;;;13.32;10.02;;;3.40;86.20;;;;;;5034916;28;20458;-47
2023/01/24 05:36:59;;;;;;;11.63;8.88;;;3.40;86.10;;;;;;5031295;28;20037;-46
2023/01/24 05:39:25;;;;;;;11.75;9.07;;;3.40;86.30;;;;;;4999203;28;20332;-47
2023/01/24 05:41:52;;;;;;;12.75;9.40;;;3.40;85.60;;;;;;5028554;28;20041;-46
2023/01/24 05:44:18;;;;;;;13.02;9.82;;;3.40;85.60;;;;;;5035513;28;20073;-45
2023/01/24 05:46:45;;;;;;;10.52;8.55;;;3.40;85.60;;;;;;5028332;28;20110;-46
2023/01/24 05:49:12;;;;;;;12.55;10.02;;;3.40;85.80;;;;;;5025263;28;20103;-45
2023/01/24 05:51:39;;;;;;;13.73;10.80;;;3.40;85.90;;;;;;5035501;28;20021;-46
2023/01/24 05:54:07;;;;;;;12.07;8.98;;;3.40;85.90;;;;;;5035680;28;20447;-47
2023/01/24 05:56:33;;;;;;;12.98;9.57;;;3.40;85.80;;;;;;5029651;28;20034;-46
2023/01/24 05:59:01;;;;;;;11.20;9.63;;;3.30;86.00;;;;;;5015655;28;20489;-45
2023/01/24 06:01:30;;;;;;;12.85;10.75;;;3.30;86.00;;;;;;5029066;28;20064;-46
2023/01/24 06:03:57;;;;;;;15.73;11.27;;;3.40;86.10;;;;;;5033546;28;20068;-45
2023/01/24 06:06:28;;;;;;;13.32;10.35;;;3.40;86.10;;;;;;5034021;28;20045;-45
2023/01/24 06:08:54;;;;;;;12.88;10.70;;;3.40;86.00;;;;;;5030307;28;20034;-46
2023/01/24 06:11:27;;;;;;;12.43;9.23;;;3.40;85.90;;;;;;5029738;28;20025;-46
2023/01/24 06:13:59;;;;;;;11.98;9.30;;;3.30;85.70;;;;;;5014523;28;20034;-46
2023/01/24 06:16:28;;;;;;;13.32;9.30;;;3.40;85.70;;;;;;5034988;28;20355;-46
2023/01/24 06:18:55;;;;;;;17.90;10.55;;;3.40;85.70;;;;;;5034110;28;20028;-47
2023/01/24 06:21:46;;;;;;;13.95;9.93;;;3.30;85.10;;;;;;5030005;28;20043;-46
2023/01/24 06:24:24;;;;;;;13.10;10.23;;;3.30;85.20;;;;;;5032466;28;20025;-45
2023/01/24 06:26:51;;;;;;;14.32;11.25;;;3.40;85.40;;;;;;5032780;28;20059;-46
2023/01/24 06:29:20;;;;;;;13.15;10.65;;;3.30;85.50;;;;;;5032595;28;20125;-45
2023/01/24 06:32:05;;;;;;;10.68;8.60;;;3.30;85.50;;;;;;5034907;28;20053;-46
2023/01/24 06:35:09;;;;;;;12.55;9.93;;;3.30;85.60;;;;;;5027941;28;20030;-45
2023/01/24 06:37:52;;;;;;;12.55;9.32;;;3.40;85.70;;;;;;5015032;28;20022;-46
2023/01/24 06:40:22;;;;;;;13.15;10.07;;;3.30;86.10;;;;;;5014706;28;20038;-49
2023/01/24 06:42:52;;;;;;;14.10;10.82;;;3.30;86.20;;;;;;5015287;28;20034;-47
2023/01/24 06:45:19;;;;;;;13.75;10.93;;;3.30;86.20;;;;;;5030178;28;20856;-46
2023/01/24 06:47:48;;;;;;;13.27;9.82;;;3.30;86.20;;;;;;5023798;28;20087;-46
2023/01/24 06:50:29;;;;;;;14.10;10.90;;;3.30;86.30;;;;;;5030677;28;20094;-46
2023/01/24 06:52:59;;;;;;;15.27;11.35;;;3.40;86.30;;;;;;5033304;28;20025;-46
2023/01/24 06:55:25;;;;;;;;;;;3.40;86.20;;;;;;5033624;28;20038;-45
2023/01/24 06:58:05;;;;;;;13.27;10.10;;;3.30;86.00;;;;;;5026395;28;19970;-45
2023/01/24 07:00:34;;;;;;;14.55;10.00;;;3.30;86.20;;;;;;5033831;28;20033;-46
2023/01/24 07:03:09;;;;;;;14.30;10.60;;;3.30;86.30;;;;;;5024521;28;20075;-47
2023/01/24 07:05:38;;;;;;;14.43;11.35;;;3.30;86.30;;;;;;5017176;28;20064;-46
2023/01/24 07:08:05;;;;;;;;;;;3.30;86.30;;;;;;5016598;28;20029;-45
2023/01/24 07:10:33;;;;;;;16.10;11.32;;;3.30;86.40;;;;;;5017525;28;20012;-46
2023/01/24 07:13:02;;;;;;;14.25;10.65;;;3.30;86.50;;;;;;5033841;28;20032;-46
2023/01/24 07:15:29;;;;;;;14.43;11.38;;;3.30;86.40;;;;;;5033759;28;20620;-46
2023/01/24 07:17:55;;;;;;;16.02;12.02;;;3.30;86.50;;;;;;5026015;28;20038;-46
2023/01/24 07:20:23;;;;;;;13.60;11.38;;;3.30;86.50;;;;;;5033767;28;20439;-45
2023/01/24 07:22:50;;;;;;;13.52;10.15;;;3.30;86.40;;;;;;5032004;28;20454;-46
2023/01/24 07:25:19;;;;;;;12.30;9.98;;;3.30;86.10;;;;;;5032839;28;20044;-46
2023/01/24 07:27:47;;;;;;;13.25;8.90;;;3.30;86.00;;;;;;5004173;28;20033;-46
2023/01/24 07:30:15;;;;;;;15.68;9.65;;;3.20;85.40;;;;;;5031752;28;20075;-46
2023/01/24 07:32:43;;;;;;;12.65;10.15;;;3.30;85.10;;;;;;5025362;28;20033;-46
2023/01/24 07:35:10;;;;;;;13.10;10.25;;;3.30;85.00;;;;;;5025549;28;20077;-45
2023/01/24 07:37:38;;;;;;;14.45;11.68;;;3.30;85.20;;;;;;5032511;28;20068;-45
2023/01/24 07:40:08;;;;;;;12.03;10.73;;;3.30;85.30;;;;;;5033832;28;20029;-46
2023/01/24 07:42:35;;;;;;;13.55;9.82;;;3.30;85.30;;;;;;5026522;28;20623;-47
2023/01/24 07:45:01;;;;;;;15.27;11.30;;;3.30;85.20;;;;;;5013767;28;20044;-45
2023/01/24 07:47:30;;;;;;;17.52;11.50;;;3.40;85.50;;;;;;5031268;28;20048;-45
2023/01/24 07:49:56;;;;;;;16.47;12.23;;;3.40;85.60;;;;;;5022498;28;20030;-48
2023/01/24 07:52:24;;;;;;;15.18;12.25;;;3.30;85.20;;;;;;5013795;28;20029;-46
2023/01/24 07:54:51;;;;;;;13.70;10.63;;;3.40;85.40;;;;;;5027583;28;20516;-46
2023/01/24 07:57:20;;;;;;;14.13;11.02;;;3.40;85.70;;;;;;5013569;28;20430;-47
2023/01/24 07:59:50;;;;;;;15.80;11.00;;;3.40;85.20;;;;;;5018991;28;20021;-46
2023/01/24 08:02:17;;;;;;;14.57;11.80;;;3.40;85.50;;;;;;5024958;28;20026;-45
2023/01/24 08:04:43;;;;;;;14.85;11.27;;;3.40;85.40;;;;;;5029412;28;20033;-46
2023/01/24 08:07:20;;;;;;;13.95;11.27;;;3.40;85.00;;;;;;5030546;28;20048;-46
2023/01/24 08:09:47;;;;;;;12.52;10.07;;;3.40;84.60;;;;;;5015232;28;20407;-46
2023/01/24 08:12:16;;;;;;;13.52;10.15;;;3.40;84.70;;;;;;5012685;28;20459;-46
2023/01/24 08:14:44;;;;;;;12.77;9.70;;;3.40;84.80;;;;;;5013364;28;20026;-46
2023/01/24 08:17:12;;;;;;;15.10;9.90;;;3.40;84.70;;;;;;5022202;28;20379;-45
2023/01/24 08:19:39;;;;;;;12.02;9.32;;;3.40;84.60;;;;;;5032274;28;20043;-46
2023/01/24 08:22:08;;;;;;;13.30;9.32;;;3.40;84.30;;;;;;5028418;28;20140;-46
2023/01/24 08:24:36;;;;;;;;;;;3.30;83.60;;;;;;5013777;28;20084;-46
2023/01/24 08:27:02;;;;;;;11.38;9.43;;;3.40;83.30;;;;;;5030578;28;20322;-46
2023/01/24 08:29:31;;;;;;;13.90;10.23;;;3.40;83.60;;;;;;5031857;28;20451;-46
2023/01/24 08:31:58;;;;;;;17.08;10.13;;;3.40;83.60;;;;;;5023495;28;20113;-46
2023/01/24 08:34:25;;;;;;;11.00;9.30;;;3.40;83.60;;;;;;5015390;28;20370;-46
2023/01/24 08:36:52;;;;;;;11.65;9.30;;;3.40;83.70;;;;;;5028852;28;20021;-46
2023/01/24 08:39:18;;;;;;;13.35;10.25;;;3.40;83.60;;;;;;5032733;28;20029;-46
2023/01/24 08:41:46;;;;;;;14.68;12.15;;;3.40;83.60;;;;;;5030327;28;20109;-46
2023/01/24 08:44:13;;;;;;;14.85;10.43;;;3.40;83.50;;;;;;5032713;28;20024;-46
2023/01/24 08:46:43;;;;;;;12.43;9.60;;;3.40;83.70;;;;;;5030768;28;20495;-46
2023/01/24 08:49:12;;;;;;;14.02;10.77;;;3.40;83.80;;;;;;5026584;28;20513;-46
2023/01/24 08:51:39;;;;;;;12.05;9.05;;;3.40;83.70;;;;;;5012343;28;20062;-46
2023/01/24 08:54:06;;;;;;;14.43;11.00;;;3.50;83.70;;;;;;4995927;28;20030;-46
2023/01/24 08:56:34;;;;;;;12.98;10.20;;;3.40;83.50;;;;;;4998531;28;20021;-46
2023/01/24 08:59:01;;;;;;;13.48;10.68;;;3.40;83.70;;;;;;5031895;28;20141;-46
2023/01/24 09:01:27;;;;;;;10.98;9.32;;;3.50;83.60;;;;;;5030085;28;20036;-46
2023/01/24 09:03:55;;;;;;;13.90;10.30;;;3.50;83.40;;;;;;5029193;28;20025;-46
2023/01/24 09:06:23;;;;;;;12.75;10.73;;;3.50;83.40;;;;;;5030877;28;20119;-46
2023/01/24 09:08:52;;;;;;;11.57;9.57;;;3.60;83.20;;;;;;5010799;28;20066;-46
2023/01/24 09:11:18;;;;;;;12.77;9.77;;;3.50;83.30;;;;;;5012096;28;20053;-46
2023/01/24 09:13:45;;;;;;;15.40;11.43;;;3.60;82.80;;;;;;5013041;28;20030;-47
2023/01/24 09:16:12;;;;;;;12.75;10.77;;;3.60;82.70;;;;;;5025354;28;20450;-46
2023/01/24 09:18:40;;;;;;;14.32;10.93;;;3.60;82.50;;;;;;5029553;28;20026;-46
2023/01/24 09:21:07;;;;;;;12.82;10.38;;;3.60;82.20;;;;;;5020702;28;20029;-46
2023/01/24 09:23:33;;;;;;;17.38;12.95;;;3.60;82.10;;;;;;5022914;28;20034;-46
2023/01/24 09:25:59;;;;;;;16.13;12.73;;;3.60;82.30;;;;;;5016261;28;20057;-46
2023/01/24 09:28:26;;;;;;;14.85;11.68;;;3.60;82.50;;;;;;5016073;28;20038;-46
2023/01/24 09:30:53;;;;;;;15.20;11.27;;;3.60;82.30;;;;;;5028820;28;20029;-46
2023/01/24 09:33:21;;;;;;;13.05;10.50;;;3.60;81.70;;;;;;5016200;28;20371;-47
2023/01/24 09:35:53;;;;;;;14.82;11.75;;;3.60;81.90;;;;;;5015211;28;20105;-47
2023/01/24 09:38:21;;;;;;;17.98;13.98;;;3.70;82.00;;;;;;4999072;28;20033;-46
2023/01/24 09:41:08;;;;;;;15.25;13.20;;;3.70;82.30;;;;;;5015941;28;20037;-47
2023/01/24 09:43:55;;;;;;;17.00;13.45;;;3.70;82.40;;;;;;5015031;28;20076;-46
2023/01/24 09:46:43;;;;;;;14.98;12.10;;;3.80;82.10;;;;;;5025852;28;20038;-46
2023/01/24 09:49:31;;;;;;;15.35;12.15;;;3.80;82.20;;;;;;5017457;28;20050;-46
2023/01/24 09:51:59;;;;;;;21.48;16.88;;;3.90;82.10;;;;;;5030331;28;20228;-46
2023/01/24 09:54:48;;;;;;;39.67;26.98;;;3.80;81.60;;;;;;5014896;28;20029;-46
2023/01/24 09:57:36;;;;;;;25.27;18.45;;;3.70;81.20;;;;;;5015830;28;20034;-46
2023/01/24 10:00:36;;;;;;;15.15;12.25;;;3.60;81.30;;;;;;5008193;28;20049;-46
2023/01/24 10:03:03;;;;;;;18.25;13.38;;;3.70;81.00;;;;;;5032319;28;20045;-47
2023/01/24 10:05:36;;;;;;;15.95;12.32;;;3.70;81.30;;;;;;5030422;28;20033;-44
2023/01/24 10:08:26;;;;;;;16.67;13.50;;;3.80;80.90;;;;;;5018093;28;20075;-46
2023/01/24 10:10:54;;;;;;;;;;;3.90;80.90;;;;;;5034120;28;20025;-45
2023/01/24 10:13:50;;;;;;;15.05;12.50;;;3.90;80.80;;;;;;5034137;28;19971;-46
2023/01/24 10:16:43;;;;;;;17.60;13.30;;;3.90;80.10;;;;;;5033682;28;20029;-46
2023/01/24 10:19:33;;;;;;;16.08;12.70;;;3.90;79.80;;;;;;5034234;28;20022;-46
2023/01/24 10:22:36;;;;;;;17.30;14.00;;;3.90;80.90;;;;;;5033433;28;20025;-46
2023/01/24 10:25:22;;;;;;;15.27;12.95;;;3.90;80.90;;;;;;5020027;28;20775;-45
2023/01/24 10:27:54;;;;;;;17.65;14.30;;;3.90;80.70;;;;;;5013166;28;20061;-46
2023/01/24 10:30:28;;;;;;;17.60;13.38;;;3.90;80.70;;;;;;5017847;28;20026;-44
2023/01/24 10:33:13;;;;;;;18.48;14.98;;;3.90;80.20;;;;;;5014251;28;20030;-45
2023/01/24 10:35:53;;;;;;;22.20;15.93;;;4.00;80.40;;;;;;5011027;28;20371;-44
2023/01/24 10:38:23;;;;;;;18.23;13.80;;;3.90;80.50;;;;;;5014151;28;20768;-45
2023/01/24 10:41:12;;;;;;;17.70;13.95;;;3.90;80.70;;;;;;5014801;28;20499;-47
2023/01/24 10:43:41;;;;;;;18.08;14.27;;;3.90;80.30;;;;;;5028093;28;21832;-47
2023/01/24 10:46:28;;;;;;;16.70;13.70;;;4.00;80.50;;;;;;5033600;28;20474;-45
2023/01/24 10:49:08;;;;;;;17.55;14.02;;;3.90;79.50;;;;;;5032731;28;20040;-45
2023/01/24 10:51:33;;;;;;;17.50;14.85;;;3.90;79.60;;;;;;5025859;28;20104;-47
2023/01/24 10:54:03;;;;;;;16.35;13.85;;;3.90;79.40;;;;;;5014667;28;20582;-45
2023/01/24 10:56:29;;;;;;;18.60;14.23;;;3.90;79.50;;;;;;5014698;28;20018;-46
2023/01/24 10:59:14;;;;;;;17.15;14.20;;;3.90;79.60;;;;;;5015886;28;20450;-44
2023/01/24 11:01:49;;;;;;;17.33;14.15;;;3.90;78.90;;;;;;5030260;28;20037;-45
2023/01/24 11:04:37;;;;;;;18.13;15.23;;;3.90;79.30;;;;;;5033813;28;20399;-44
2023/01/24 11:07:30;;;;;;;19.93;15.23;;;4.00;79.40;;;;;;5014220;28;20093;-46
2023/01/24 11:09:59;;;;;;;18.13;14.88;;;3.90;79.10;;;;;;5013974;28;20030;-46
2023/01/24 11:12:30;;;;;;;20.83;15.23;;;3.90;79.00;;;;;;5014462;28;20148;-44
2023/01/24 11:14:57;;;;;;;19.38;16.10;;;4.00;79.40;;;;;;5025779;28;20051;-45
2023/01/24 11:17:35;;;;;;;16.23;13.52;;;4.00;79.60;;;;;;5033079;28;20033;-45
2023/01/24 11:20:23;;;;;;;19.40;14.30;;;4.00;79.10;;;;;;5021054;28;20120;-46
2023/01/24 11:23:02;;;;;;;17.50;14.60;;;4.10;78.80;;;;;;5014378;28;20109;-44
2023/01/24 11:25:32;;;;;;;21.48;15.90;;;4.00;78.40;;;;;;5014238;28;20037;-46
2023/01/24 11:28:00;;;;;;;18.80;15.65;;;4.00;78.70;;;;;;5013888;28;20044;-46
2023/01/24 11:30:33;;;;;;;21.00;17.40;;;4.00;79.40;;;;;;5030773;28;20021;-46
2023/01/24 11:33:34;;;;;;;21.75;15.95;;;4.00;79.30;;;;;;5033187;28;20091;-48
2023/01/24 11:36:24;;;;;;;22.27;17.20;;;4.00;78.90;;;;;;5033669;28;20037;-45
2023/01/24 11:39:01;;;;;;;23.60;17.02;;;3.90;78.90;;;;;;5030405;28;20040;-45
2023/01/24 11:41:37;;;;;;;24.15;18.58;;;3.80;78.90;;;;;;5015945;28;20471;-46
2023/01/24 11:44:41;;;;;;;22.30;16.73;;;3.70;79.70;;;;;;5001368;28;20045;-46
2023/01/24 11:47:33;;;;;;;21.38;16.70;;;3.80;79.50;;;;;;5027504;28;20080;-46
2023/01/24 11:50:27;;;;;;;20.60;16.65;;;3.80;79.60;;;;;;5014360;28;20038;-46
2023/01/24 11:53:24;;;;;;;21.60;15.18;;;3.90;79.80;;;;;;5030325;28;20079;-46
2023/01/24 11:56:20;;;;;;;19.33;14.88;;;3.80;79.50;;;;;;5032061;28;20040;-46
2023/01/24 11:58:56;;;;;;;17.35;13.25;;;3.70;78.50;;;;;;5030883;28;20038;-46
2023/01/24 12:01:30;;;;;;;22.98;14.93;;;3.80;78.90;;;;;;5016224;28;20075;-46
2023/01/24 12:04:35;;;;;;;17.25;13.65;;;3.70;78.40;;;;;;5013649;28;20117;-46
2023/01/24 12:07:33;;;;;;;18.63;14.25;;;3.70;78.90;;;;;;5013430;28;20058;-46
2023/01/24 12:10:43;;;;;;;19.33;14.57;;;3.80;78.90;;;;;;5032055;28;20397;-46
2023/01/24 12:13:23;;;;;;;18.60;14.50;;;3.80;78.90;;;;;;5029541;28;20030;-46
2023/01/24 12:16:04;;;;;;;19.05;15.88;;;3.80;79.30;;;;;;5032274;28;20025;-47
2023/01/24 12:19:09;;;;;;;20.77;16.55;;;3.80;79.20;;;;;;5027804;28;20374;-46
2023/01/24 12:21:39;;;;;;;18.00;14.55;;;3.70;78.90;;;;;;5012570;28;20121;-46
2023/01/24 12:24:19;;;;;;;;;;;3.70;78.80;;;;;;5015125;28;20034;-46
2023/01/24 12:26:52;;;;;;;18.90;14.05;;;3.70;78.70;;;;;;5011908;28;19921;-46
2023/01/24 12:29:57;;;;;;;19.08;15.35;;;3.70;78.60;;;;;;5020344;28;20541;-46
2023/01/24 12:32:40;;;;;;;18.85;15.15;;;3.80;79.00;;;;;;5019449;28;20045;-46
2023/01/24 12:35:33;;;;;;;20.30;14.82;;;3.70;78.70;;;;;;5019815;28;20056;-46
2023/01/24 12:38:31;;;;;;;19.70;15.02;;;3.80;78.90;;;;;;5031800;28;20080;-46
2023/01/24 12:41:25;;;;;;;20.80;14.98;;;3.80;78.70;;;;;;5032485;28;20513;-47
2023/01/24 12:44:25;;;;;;;23.80;15.25;;;3.80;78.40;;;;;;5020867;28;20068;-48
2023/01/24 12:47:30;;;;;;;19.13;15.95;;;3.80;78.60;;;;;;5031446;28;20105;-46
2023/01/24 12:50:24;;;;;;;18.80;14.82;;;3.80;79.10;;;;;;5034318;28;20034;-46
2023/01/24 12:53:18;;;;;;;16.25;12.45;;;3.70;78.30;;;;;;5035867;28;20355;-46
2023/01/24 12:55:58;;;;;;;18.83;15.05;;;3.90;78.60;;;;;;5034965;28;20136;-47
2023/01/24 12:58:39;;;;;;;21.88;17.30;;;3.90;78.70;;;;;;5031290;28;20057;-46
2023/01/24 13:01:20;;;;;;;23.50;16.00;;;4.00;78.90;;;;;;5021185;28;20081;-46
2023/01/24 13:04:28;;;;;;;19.48;15.32;;;4.00;78.60;;;;;;5032525;28;20088;-46
2023/01/24 13:07:27;;;;;;;21.52;15.88;;;4.00;78.50;;;;;;5023533;28;20041;-46
2023/01/24 13:10:18;;;;;;;19.83;15.13;;;4.00;78.50;;;;;;5035129;28;20685;-46
2023/01/24 13:12:46;;;;;;;19.75;15.35;;;3.90;78.80;;;;;;5034595;28;20030;-47
2023/01/24 13:15:26;;;;;;;21.15;17.13;;;4.00;78.70;;;;;;5011348;28;20041;-46
2023/01/24 13:18:42;;;;;;;25.05;17.88;;;3.90;79.40;;;;;;5016232;28;20033;-46
2023/01/24 13:21:34;;;;;;;21.23;16.77;;;3.90;79.60;;;;;;5008073;28;20045;-47
2023/01/24 13:24:24;;;;;;;20.77;16.30;;;3.80;79.00;;;;;;5013449;28;20096;-47
2023/01/24 13:27:11;;;;;;;20.38;16.05;;;3.80;79.10;;;;;;5014451;28;20042;-46
2023/01/24 13:29:48;;;;;;;20.42;15.63;;;3.70;79.00;;;;;;5012560;28;20113;-46
2023/01/24 13:32:23;;;;;;;20.95;15.93;;;3.80;79.20;;;;;;5014375;28;20340;-46
2023/01/24 13:35:18;;;;;;;22.80;15.60;;;3.90;79.20;;;;;;5013986;28;20040;-46
2023/01/24 13:38:15;;;;;;;20.63;15.60;;;3.90;79.40;;;;;;5013881;28;20044;-47
2023/01/24 13:41:00;;;;;;;19.00;14.90;;;3.80;79.60;;;;;;4997354;28;20037;-46
2023/01/24 13:44:04;;;;;;;20.02;15.55;;;3.90;79.60;;;;;;4997234;28;20483;-46
2023/01/24 13:46:43;;;;;;;23.15;16.65;;;3.90;79.40;;;;;;4996894;28;20139;-47
2023/01/24 13:49:27;;;;;;;19.65;14.95;;;3.80;79.00;;;;;;5013935;28;20030;-46
2023/01/24 13:51:56;;;;;;;18.35;13.63;;;3.90;79.30;;;;;;5023376;28;20042;-46
2023/01/24 13:54:43;;;;;;;20.60;15.88;;;3.80;79.70;;;;;;5034636;28;20030;-47